sensor_id;sensor_type;location;lat;lon;timestamp;P1;durP1;ratioP1;P2;durP2;ratioP2
11955;SDS011;6038;52.276;10.530;2023-06-10T00:01:58;3.73;;;2.73;;
11955;SDS011;6038;52.276;10.530;2023-06-10T00:04:25;4.70;;;2.87;;
11955;SDS011;6038;52.276;10.530;2023-06-10T00:06:51;4.77;;;2.40;;
11955;SDS011;6038;52.276;10.530;2023-06-10T00:09:17;9.63;;;2.73;;
11955;SDS011;6038;52.276;10.530;2023-06-10T00:11:43;4.47;;;2.57;;
11955;SDS011;6038;52.276;10.530;2023-06-10T00:14:09;5.80;;;2.90;;
11955;SDS011;6038;52.276;10.530;2023-06-10T00:16:35;4.10;;;2.70;;
11955;SDS011;6038;52.276;10.530;2023-06-10T00:19:02;5.87;;;3.00;;
11955;SDS011;6038;52.276;10.530;2023-06-10T00:21:29;5.67;;;2.70;;
11955;SDS011;6038;52.276;10.530;2023-06-10T00:23:55;5.27;;;3.07;;
11955;SDS011;6038;52.276;10.530;2023-06-10T00:26:24;7.07;;;2.87;;
11955;SDS011;6038;52.276;10.530;2023-06-10T00:28:51;4.23;;;2.87;;
11955;SDS011;6038;52.276;10.530;2023-06-10T00:31:17;5.20;;;3.10;;
11955;SDS011;6038;52.276;10.530;2023-06-10T00:33:43;5.67;;;2.90;;
11955;SDS011;6038;52.276;10.530;2023-06-10T00:36:09;7.07;;;2.97;;
11955;SDS011;6038;52.276;10.530;2023-06-10T00:38:35;4.40;;;2.80;;
11955;SDS011;6038;52.276;10.530;2023-06-10T00:41:01;5.43;;;2.90;;
11955;SDS011;6038;52.276;10.530;2023-06-10T00:43:27;6.50;;;2.80;;
11955;SDS011;6038;52.276;10.530;2023-06-10T00:45:53;9.30;;;3.30;;
11955;SDS011;6038;52.276;10.530;2023-06-10T00:48:20;4.63;;;2.90;;
11955;SDS011;6038;52.276;10.530;2023-06-10T00:50:46;5.20;;;2.87;;
11955;SDS011;6038;52.276;10.530;2023-06-10T00:53:12;6.77;;;2.97;;
11955;SDS011;6038;52.276;10.530;2023-06-10T00:55:39;4.27;;;2.90;;
11955;SDS011;6038;52.276;10.530;2023-06-10T00:58:05;7.10;;;3.20;;
11955;SDS011;6038;52.276;10.530;2023-06-10T01:00:32;5.07;;;2.87;;
11955;SDS011;6038;52.276;10.530;2023-06-10T01:02:58;7.17;;;3.13;;
11955;SDS011;6038;52.276;10.530;2023-06-10T01:05:24;4.80;;;2.97;;
11955;SDS011;6038;52.276;10.530;2023-06-10T01:08:01;7.30;;;2.90;;
11955;SDS011;6038;52.276;10.530;2023-06-10T01:12:59;4.63;;;3.10;;
11955;SDS011;6038;52.276;10.530;2023-06-10T01:15:28;5.57;;;3.37;;
11955;SDS011;6038;52.276;10.530;2023-06-10T01:18:02;6.77;;;3.07;;
11955;SDS011;6038;52.276;10.530;2023-06-10T01:20:29;6.67;;;2.87;;
11955;SDS011;6038;52.276;10.530;2023-06-10T01:22:57;6.47;;;3.40;;
11955;SDS011;6038;52.276;10.530;2023-06-10T01:25:24;6.03;;;2.87;;
11955;SDS011;6038;52.276;10.530;2023-06-10T01:27:59;5.43;;;3.40;;
11955;SDS011;6038;52.276;10.530;2023-06-10T01:30:38;8.10;;;3.07;;
11955;SDS011;6038;52.276;10.530;2023-06-10T01:33:06;5.40;;;3.00;;
11955;SDS011;6038;52.276;10.530;2023-06-10T01:35:34;6.47;;;3.33;;
11955;SDS011;6038;52.276;10.530;2023-06-10T01:38:02;4.23;;;3.23;;
11955;SDS011;6038;52.276;10.530;2023-06-10T01:40:29;6.20;;;3.30;;
11955;SDS011;6038;52.276;10.530;2023-06-10T01:42:55;6.97;;;2.93;;
11955;SDS011;6038;52.276;10.530;2023-06-10T01:45:21;4.87;;;3.20;;
11955;SDS011;6038;52.276;10.530;2023-06-10T01:47:47;9.07;;;3.23;;
11955;SDS011;6038;52.276;10.530;2023-06-10T01:50:13;5.43;;;3.20;;
11955;SDS011;6038;52.276;10.530;2023-06-10T01:52:41;8.40;;;3.13;;
11955;SDS011;6038;52.276;10.530;2023-06-10T01:55:07;8.60;;;3.20;;
11955;SDS011;6038;52.276;10.530;2023-06-10T01:57:33;7.37;;;3.60;;
11955;SDS011;6038;52.276;10.530;2023-06-10T01:59:59;5.43;;;2.93;;
11955;SDS011;6038;52.276;10.530;2023-06-10T02:02:25;7.03;;;3.37;;
11955;SDS011;6038;52.276;10.530;2023-06-10T02:04:51;6.40;;;3.10;;
11955;SDS011;6038;52.276;10.530;2023-06-10T02:07:17;8.43;;;3.53;;
11955;SDS011;6038;52.276;10.530;2023-06-10T02:09:43;5.80;;;3.20;;
11955;SDS011;6038;52.276;10.530;2023-06-10T02:12:09;4.80;;;3.30;;
11955;SDS011;6038;52.276;10.530;2023-06-10T02:14:36;6.77;;;3.73;;
11955;SDS011;6038;52.276;10.530;2023-06-10T02:17:02;6.30;;;3.33;;
11955;SDS011;6038;52.276;10.530;2023-06-10T02:19:29;6.23;;;3.23;;
11955;SDS011;6038;52.276;10.530;2023-06-10T02:21:55;5.63;;;3.33;;
11955;SDS011;6038;52.276;10.530;2023-06-10T02:24:21;6.37;;;3.33;;
11955;SDS011;6038;52.276;10.530;2023-06-10T02:26:47;7.00;;;3.40;;
11955;SDS011;6038;52.276;10.530;2023-06-10T02:29:14;5.67;;;3.90;;
11955;SDS011;6038;52.276;10.530;2023-06-10T02:31:40;6.43;;;3.80;;
11955;SDS011;6038;52.276;10.530;2023-06-10T02:34:06;7.90;;;3.87;;
11955;SDS011;6038;52.276;10.530;2023-06-10T02:36:32;5.97;;;3.40;;
11955;SDS011;6038;52.276;10.530;2023-06-10T02:39:00;8.57;;;4.00;;
11955;SDS011;6038;52.276;10.530;2023-06-10T02:41:26;5.00;;;3.77;;
11955;SDS011;6038;52.276;10.530;2023-06-10T02:43:52;6.93;;;3.80;;
11955;SDS011;6038;52.276;10.530;2023-06-10T02:46:18;7.63;;;3.73;;
11955;SDS011;6038;52.276;10.530;2023-06-10T02:48:45;5.87;;;3.50;;
11955;SDS011;6038;52.276;10.530;2023-06-10T02:51:11;6.30;;;3.43;;
11955;SDS011;6038;52.276;10.530;2023-06-10T02:53:37;5.83;;;3.27;;
11955;SDS011;6038;52.276;10.530;2023-06-10T02:56:03;5.47;;;3.83;;
11955;SDS011;6038;52.276;10.530;2023-06-10T02:58:29;10.13;;;3.60;;
11955;SDS011;6038;52.276;10.530;2023-06-10T03:00:55;6.30;;;3.73;;
11955;SDS011;6038;52.276;10.530;2023-06-10T03:03:21;5.23;;;3.40;;
11955;SDS011;6038;52.276;10.530;2023-06-10T03:05:47;7.03;;;4.03;;
11955;SDS011;6038;52.276;10.530;2023-06-10T03:08:13;7.80;;;3.80;;
11955;SDS011;6038;52.276;10.530;2023-06-10T03:10:39;5.73;;;4.00;;
11955;SDS011;6038;52.276;10.530;2023-06-10T03:13:05;8.87;;;3.80;;
11955;SDS011;6038;52.276;10.530;2023-06-10T03:15:31;7.67;;;3.80;;
11955;SDS011;6038;52.276;10.530;2023-06-10T03:18:01;6.90;;;3.43;;
11955;SDS011;6038;52.276;10.530;2023-06-10T03:20:27;9.17;;;3.90;;
11955;SDS011;6038;52.276;10.530;2023-06-10T03:22:53;7.67;;;4.10;;
11955;SDS011;6038;52.276;10.530;2023-06-10T03:25:19;5.90;;;3.77;;
11955;SDS011;6038;52.276;10.530;2023-06-10T03:27:46;8.10;;;4.07;;
11955;SDS011;6038;52.276;10.530;2023-06-10T03:30:12;12.00;;;4.10;;
11955;SDS011;6038;52.276;10.530;2023-06-10T03:32:38;7.60;;;4.27;;
11955;SDS011;6038;52.276;10.530;2023-06-10T03:35:06;8.70;;;3.80;;
11955;SDS011;6038;52.276;10.530;2023-06-10T03:37:32;7.17;;;3.60;;
11955;SDS011;6038;52.276;10.530;2023-06-10T03:39:58;9.10;;;3.97;;
11955;SDS011;6038;52.276;10.530;2023-06-10T03:42:24;8.67;;;4.40;;
11955;SDS011;6038;52.276;10.530;2023-06-10T03:44:50;8.37;;;4.23;;
11955;SDS011;6038;52.276;10.530;2023-06-10T03:47:16;7.33;;;3.80;;
11955;SDS011;6038;52.276;10.530;2023-06-10T03:49:42;9.10;;;4.10;;
11955;SDS011;6038;52.276;10.530;2023-06-10T03:52:08;12.83;;;4.57;;
11955;SDS011;6038;52.276;10.530;2023-06-10T03:54:34;11.30;;;4.00;;
11955;SDS011;6038;52.276;10.530;2023-06-10T03:57:00;10.73;;;4.57;;
11955;SDS011;6038;52.276;10.530;2023-06-10T03:59:26;8.07;;;4.17;;
11955;SDS011;6038;52.276;10.530;2023-06-10T04:01:53;9.33;;;4.10;;
11955;SDS011;6038;52.276;10.530;2023-06-10T04:04:19;6.93;;;3.97;;
11955;SDS011;6038;52.276;10.530;2023-06-10T04:06:46;8.80;;;4.30;;
11955;SDS011;6038;52.276;10.530;2023-06-10T04:09:13;6.93;;;3.80;;
11955;SDS011;6038;52.276;10.530;2023-06-10T04:11:39;8.13;;;3.90;;
11955;SDS011;6038;52.276;10.530;2023-06-10T04:14:05;9.70;;;4.30;;
11955;SDS011;6038;52.276;10.530;2023-06-10T04:16:31;7.50;;;3.97;;
11955;SDS011;6038;52.276;10.530;2023-06-10T04:18:57;8.63;;;4.17;;
11955;SDS011;6038;52.276;10.530;2023-06-10T04:21:23;9.00;;;3.90;;
11955;SDS011;6038;52.276;10.530;2023-06-10T04:23:49;9.03;;;4.20;;
11955;SDS011;6038;52.276;10.530;2023-06-10T04:26:16;7.43;;;3.83;;
11955;SDS011;6038;52.276;10.530;2023-06-10T04:28:45;10.27;;;3.90;;
11955;SDS011;6038;52.276;10.530;2023-06-10T04:31:11;9.50;;;4.17;;
11955;SDS011;6038;52.276;10.530;2023-06-10T04:33:37;8.13;;;4.37;;
11955;SDS011;6038;52.276;10.530;2023-06-10T04:36:03;9.43;;;4.10;;
11955;SDS011;6038;52.276;10.530;2023-06-10T04:38:31;11.70;;;4.67;;
11955;SDS011;6038;52.276;10.530;2023-06-10T04:40:57;5.13;;;3.67;;
11955;SDS011;6038;52.276;10.530;2023-06-10T04:43:23;8.77;;;4.27;;
11955;SDS011;6038;52.276;10.530;2023-06-10T04:45:49;7.63;;;4.53;;
11955;SDS011;6038;52.276;10.530;2023-06-10T04:48:15;9.13;;;3.70;;
11955;SDS011;6038;52.276;10.530;2023-06-10T04:50:41;7.90;;;3.93;;
11955;SDS011;6038;52.276;10.530;2023-06-10T04:53:07;6.23;;;3.87;;
11955;SDS011;6038;52.276;10.530;2023-06-10T04:55:34;8.33;;;4.03;;
11955;SDS011;6038;52.276;10.530;2023-06-10T04:58:01;9.60;;;3.70;;
11955;SDS011;6038;52.276;10.530;2023-06-10T05:00:27;8.70;;;4.40;;
11955;SDS011;6038;52.276;10.530;2023-06-10T05:02:53;6.17;;;3.73;;
11955;SDS011;6038;52.276;10.530;2023-06-10T05:05:21;5.83;;;3.30;;
11955;SDS011;6038;52.276;10.530;2023-06-10T05:07:47;9.43;;;4.07;;
11955;SDS011;6038;52.276;10.530;2023-06-10T05:10:13;7.50;;;3.83;;
11955;SDS011;6038;52.276;10.530;2023-06-10T05:12:39;7.27;;;3.73;;
11955;SDS011;6038;52.276;10.530;2023-06-10T05:15:06;8.57;;;3.63;;
11955;SDS011;6038;52.276;10.530;2023-06-10T05:17:32;9.20;;;3.80;;
11955;SDS011;6038;52.276;10.530;2023-06-10T05:19:59;6.67;;;3.93;;
11955;SDS011;6038;52.276;10.530;2023-06-10T05:22:25;8.33;;;3.60;;
11955;SDS011;6038;52.276;10.530;2023-06-10T05:24:52;8.50;;;4.10;;
11955;SDS011;6038;52.276;10.530;2023-06-10T05:27:18;10.23;;;4.07;;
11955;SDS011;6038;52.276;10.530;2023-06-10T05:29:44;10.37;;;4.30;;
11955;SDS011;6038;52.276;10.530;2023-06-10T05:32:10;6.40;;;4.17;;
11955;SDS011;6038;52.276;10.530;2023-06-10T05:34:37;8.80;;;4.30;;
11955;SDS011;6038;52.276;10.530;2023-06-10T05:37:03;7.73;;;4.23;;
11955;SDS011;6038;52.276;10.530;2023-06-10T05:39:29;7.00;;;4.23;;
11955;SDS011;6038;52.276;10.530;2023-06-10T05:41:55;7.93;;;4.63;;
11955;SDS011;6038;52.276;10.530;2023-06-10T05:44:23;6.57;;;3.50;;
11955;SDS011;6038;52.276;10.530;2023-06-10T05:46:50;10.87;;;4.20;;
11955;SDS011;6038;52.276;10.530;2023-06-10T05:49:16;9.93;;;4.30;;
11955;SDS011;6038;52.276;10.530;2023-06-10T05:51:42;9.90;;;3.90;;
11955;SDS011;6038;52.276;10.530;2023-06-10T05:54:08;9.70;;;4.30;;
11955;SDS011;6038;52.276;10.530;2023-06-10T05:56:34;9.57;;;4.30;;
11955;SDS011;6038;52.276;10.530;2023-06-10T05:59:00;7.87;;;4.07;;
11955;SDS011;6038;52.276;10.530;2023-06-10T06:01:26;7.43;;;4.10;;
11955;SDS011;6038;52.276;10.530;2023-06-10T06:03:52;8.03;;;3.80;;
11955;SDS011;6038;52.276;10.530;2023-06-10T06:06:18;7.63;;;4.00;;
11955;SDS011;6038;52.276;10.530;2023-06-10T06:08:45;6.80;;;4.17;;
11955;SDS011;6038;52.276;10.530;2023-06-10T06:11:11;9.47;;;4.53;;
11955;SDS011;6038;52.276;10.530;2023-06-10T06:13:38;10.37;;;5.13;;
11955;SDS011;6038;52.276;10.530;2023-06-10T06:16:04;12.20;;;9.60;;
11955;SDS011;6038;52.276;10.530;2023-06-10T06:18:30;8.10;;;4.30;;
11955;SDS011;6038;52.276;10.530;2023-06-10T06:20:56;9.07;;;4.87;;
11955;SDS011;6038;52.276;10.530;2023-06-10T06:23:22;8.63;;;3.90;;
11955;SDS011;6038;52.276;10.530;2023-06-10T06:25:48;9.30;;;4.23;;
11955;SDS011;6038;52.276;10.530;2023-06-10T06:28:14;8.33;;;4.23;;
11955;SDS011;6038;52.276;10.530;2023-06-10T06:30:40;9.43;;;4.27;;
11955;SDS011;6038;52.276;10.530;2023-06-10T06:33:06;10.93;;;4.60;;
11955;SDS011;6038;52.276;10.530;2023-06-10T06:35:33;12.57;;;4.40;;
11955;SDS011;6038;52.276;10.530;2023-06-10T06:37:59;9.50;;;3.90;;
11955;SDS011;6038;52.276;10.530;2023-06-10T06:40:25;5.80;;;3.73;;
11955;SDS011;6038;52.276;10.530;2023-06-10T06:42:51;7.30;;;3.90;;
11955;SDS011;6038;52.276;10.530;2023-06-10T06:45:17;7.83;;;4.20;;
11955;SDS011;6038;52.276;10.530;2023-06-10T06:47:43;6.60;;;3.97;;
11955;SDS011;6038;52.276;10.530;2023-06-10T06:50:09;7.90;;;3.87;;
11955;SDS011;6038;52.276;10.530;2023-06-10T06:52:35;10.53;;;3.83;;
11955;SDS011;6038;52.276;10.530;2023-06-10T06:55:01;9.10;;;3.87;;
11955;SDS011;6038;52.276;10.530;2023-06-10T06:57:27;7.30;;;3.60;;
11955;SDS011;6038;52.276;10.530;2023-06-10T06:59:53;4.67;;;3.47;;
11955;SDS011;6038;52.276;10.530;2023-06-10T07:02:19;5.00;;;3.63;;
11955;SDS011;6038;52.276;10.530;2023-06-10T07:04:45;6.43;;;3.57;;
11955;SDS011;6038;52.276;10.530;2023-06-10T07:07:13;8.13;;;3.80;;
11955;SDS011;6038;52.276;10.530;2023-06-10T07:09:39;6.87;;;3.80;;
11955;SDS011;6038;52.276;10.530;2023-06-10T07:12:06;6.23;;;4.03;;
11955;SDS011;6038;52.276;10.530;2023-06-10T07:14:32;8.20;;;4.30;;
11955;SDS011;6038;52.276;10.530;2023-06-10T07:16:58;9.80;;;4.13;;
11955;SDS011;6038;52.276;10.530;2023-06-10T07:19:24;10.93;;;3.77;;
11955;SDS011;6038;52.276;10.530;2023-06-10T07:21:50;7.00;;;3.80;;
11955;SDS011;6038;52.276;10.530;2023-06-10T07:24:16;6.07;;;3.30;;
11955;SDS011;6038;52.276;10.530;2023-06-10T07:26:42;8.20;;;3.67;;
11955;SDS011;6038;52.276;10.530;2023-06-10T07:29:08;10.30;;;4.13;;
11955;SDS011;6038;52.276;10.530;2023-06-10T07:31:34;8.25;;;3.63;;
11955;SDS011;6038;52.276;10.530;2023-06-10T07:34:00;8.32;;;3.60;;
11955;SDS011;6038;52.276;10.530;2023-06-10T07:36:26;6.85;;;3.55;;
11955;SDS011;6038;52.276;10.530;2023-06-10T07:38:53;7.75;;;3.40;;
11955;SDS011;6038;52.276;10.530;2023-06-10T07:41:20;6.80;;;4.10;;
11955;SDS011;6038;52.276;10.530;2023-06-10T07:43:46;6.95;;;3.80;;
11955;SDS011;6038;52.276;10.530;2023-06-10T07:46:12;7.57;;;4.10;;
11955;SDS011;6038;52.276;10.530;2023-06-10T07:48:38;5.65;;;3.38;;
11955;SDS011;6038;52.276;10.530;2023-06-10T07:51:04;5.35;;;3.60;;
11955;SDS011;6038;52.276;10.530;2023-06-10T07:53:30;4.95;;;3.33;;
11955;SDS011;6038;52.276;10.530;2023-06-10T07:55:56;6.25;;;3.80;;
11955;SDS011;6038;52.276;10.530;2023-06-10T07:58:22;6.82;;;3.60;;
11955;SDS011;6038;52.276;10.530;2023-06-10T08:00:48;8.27;;;3.67;;
11955;SDS011;6038;52.276;10.530;2023-06-10T08:03:14;4.47;;;3.17;;
11955;SDS011;6038;52.276;10.530;2023-06-10T08:05:40;5.53;;;3.55;;
11955;SDS011;6038;52.276;10.530;2023-06-10T08:08:06;6.15;;;3.38;;
11955;SDS011;6038;52.276;10.530;2023-06-10T08:10:32;5.90;;;3.08;;
11955;SDS011;6038;52.276;10.530;2023-06-10T08:12:58;7.03;;;3.28;;
11955;SDS011;6038;52.276;10.530;2023-06-10T08:15:24;5.75;;;3.40;;
11955;SDS011;6038;52.276;10.530;2023-06-10T08:17:50;8.25;;;3.45;;
11955;SDS011;6038;52.276;10.530;2023-06-10T08:20:18;8.10;;;3.60;;
11955;SDS011;6038;52.276;10.530;2023-06-10T08:22:44;6.00;;;3.50;;
11955;SDS011;6038;52.276;10.530;2023-06-10T08:25:10;6.55;;;3.58;;
11955;SDS011;6038;52.276;10.530;2023-06-10T08:27:36;6.50;;;3.35;;
11955;SDS011;6038;52.276;10.530;2023-06-10T08:30:02;7.85;;;3.80;;
11955;SDS011;6038;52.276;10.530;2023-06-10T08:32:28;6.38;;;3.60;;
11955;SDS011;6038;52.276;10.530;2023-06-10T08:34:54;6.80;;;4.00;;
11955;SDS011;6038;52.276;10.530;2023-06-10T08:37:20;6.82;;;4.07;;
11955;SDS011;6038;52.276;10.530;2023-06-10T08:39:47;6.93;;;4.15;;
11955;SDS011;6038;52.276;10.530;2023-06-10T08:44:38;4.25;;;3.33;;
11955;SDS011;6038;52.276;10.530;2023-06-10T08:47:06;8.30;;;3.55;;
11955;SDS011;6038;52.276;10.530;2023-06-10T08:49:34;7.53;;;4.10;;
11955;SDS011;6038;52.276;10.530;2023-06-10T08:52:04;8.57;;;3.88;;
11955;SDS011;6038;52.276;10.530;2023-06-10T08:54:32;5.85;;;3.53;;
11955;SDS011;6038;52.276;10.530;2023-06-10T08:57:04;6.07;;;4.15;;
11955;SDS011;6038;52.276;10.530;2023-06-10T08:59:31;7.25;;;3.40;;
11955;SDS011;6038;52.276;10.530;2023-06-10T09:01:57;7.57;;;3.60;;
11955;SDS011;6038;52.276;10.530;2023-06-10T09:04:24;6.97;;;3.50;;
11955;SDS011;6038;52.276;10.530;2023-06-10T09:06:50;6.30;;;3.63;;
11955;SDS011;6038;52.276;10.530;2023-06-10T09:09:16;6.45;;;3.80;;
11955;SDS011;6038;52.276;10.530;2023-06-10T09:11:44;4.75;;;3.50;;
11955;SDS011;6038;52.276;10.530;2023-06-10T09:14:10;7.57;;;3.55;;
11955;SDS011;6038;52.276;10.530;2023-06-10T09:16:40;7.40;;;4.13;;
11955;SDS011;6038;52.276;10.530;2023-06-10T09:19:06;6.82;;;3.80;;
11955;SDS011;6038;52.276;10.530;2023-06-10T09:21:35;7.55;;;3.67;;
11955;SDS011;6038;52.276;10.530;2023-06-10T09:24:01;5.40;;;3.72;;
11955;SDS011;6038;52.276;10.530;2023-06-10T09:26:27;6.90;;;3.75;;
11955;SDS011;6038;52.276;10.530;2023-06-10T09:28:57;6.38;;;3.72;;
11955;SDS011;6038;52.276;10.530;2023-06-10T09:31:23;4.00;;;3.47;;
11955;SDS011;6038;52.276;10.530;2023-06-10T09:33:49;5.75;;;3.83;;
11955;SDS011;6038;52.276;10.530;2023-06-10T09:36:22;5.70;;;4.03;;
11955;SDS011;6038;52.276;10.530;2023-06-10T09:38:49;5.10;;;4.00;;
11955;SDS011;6038;52.276;10.530;2023-06-10T09:41:18;6.43;;;3.95;;
11955;SDS011;6038;52.276;10.530;2023-06-10T09:43:45;6.20;;;3.78;;
11955;SDS011;6038;52.276;10.530;2023-06-10T09:46:15;9.30;;;4.18;;
11955;SDS011;6038;52.276;10.530;2023-06-10T09:48:42;4.82;;;3.35;;
11955;SDS011;6038;52.276;10.530;2023-06-10T09:51:11;6.03;;;3.55;;
11955;SDS011;6038;52.276;10.530;2023-06-10T09:53:38;7.40;;;4.03;;
11955;SDS011;6038;52.276;10.530;2023-06-10T09:56:04;7.20;;;4.30;;
11955;SDS011;6038;52.276;10.530;2023-06-10T09:58:36;5.63;;;4.10;;
11955;SDS011;6038;52.276;10.530;2023-06-10T10:01:06;5.95;;;4.22;;
11955;SDS011;6038;52.276;10.530;2023-06-10T10:03:32;4.65;;;3.88;;
11955;SDS011;6038;52.276;10.530;2023-06-10T10:05:59;5.75;;;4.25;;
11955;SDS011;6038;52.276;10.530;2023-06-10T10:08:28;6.53;;;4.43;;
11955;SDS011;6038;52.276;10.530;2023-06-10T10:10:55;7.43;;;4.38;;
11955;SDS011;6038;52.276;10.530;2023-06-10T10:13:23;6.43;;;3.90;;
11955;SDS011;6038;52.276;10.530;2023-06-10T10:15:50;7.38;;;3.70;;
11955;SDS011;6038;52.276;10.530;2023-06-10T10:18:17;6.65;;;4.47;;
11955;SDS011;6038;52.276;10.530;2023-06-10T10:20:46;5.22;;;3.90;;
11955;SDS011;6038;52.276;10.530;2023-06-10T10:23:12;6.10;;;4.57;;
11955;SDS011;6038;52.276;10.530;2023-06-10T10:25:40;5.63;;;4.28;;
11955;SDS011;6038;52.276;10.530;2023-06-10T10:28:12;7.35;;;4.30;;
11955;SDS011;6038;52.276;10.530;2023-06-10T10:30:42;6.32;;;4.38;;
11955;SDS011;6038;52.276;10.530;2023-06-10T10:33:12;6.18;;;4.25;;
11955;SDS011;6038;52.276;10.530;2023-06-10T10:35:41;6.55;;;4.20;;
11955;SDS011;6038;52.276;10.530;2023-06-10T10:38:08;4.20;;;3.80;;
11955;SDS011;6038;52.276;10.530;2023-06-10T10:40:35;7.72;;;3.97;;
11955;SDS011;6038;52.276;10.530;2023-06-10T10:43:01;5.35;;;3.88;;
11955;SDS011;6038;52.276;10.530;2023-06-10T10:45:28;5.88;;;4.25;;
11955;SDS011;6038;52.276;10.530;2023-06-10T10:47:54;7.25;;;3.90;;
11955;SDS011;6038;52.276;10.530;2023-06-10T10:50:22;7.05;;;4.40;;
11955;SDS011;6038;52.276;10.530;2023-06-10T10:55:18;8.23;;;4.78;;
11955;SDS011;6038;52.276;10.530;2023-06-10T10:57:44;5.97;;;4.25;;
11955;SDS011;6038;52.276;10.530;2023-06-10T11:00:24;6.22;;;4.78;;
11955;SDS011;6038;52.276;10.530;2023-06-10T11:02:50;7.07;;;6.43;;
11955;SDS011;6038;52.276;10.530;2023-06-10T11:05:18;39.92;;;37.10;;
11955;SDS011;6038;52.276;10.530;2023-06-10T11:07:56;64.38;;;59.85;;
11955;SDS011;6038;52.276;10.530;2023-06-10T11:10:38;94.97;;;87.85;;
11955;SDS011;6038;52.276;10.530;2023-06-10T11:13:13;103.40;;;95.35;;
11955;SDS011;6038;52.276;10.530;2023-06-10T11:15:46;108.63;;;100.20;;
11955;SDS011;6038;52.276;10.530;2023-06-10T11:28:41;239.63;;;214.25;;
11955;SDS011;6038;52.276;10.530;2023-06-10T11:31:08;285.27;;;211.02;;
11955;SDS011;6038;52.276;10.530;2023-06-10T11:33:34;270.33;;;178.23;;
11955;SDS011;6038;52.276;10.530;2023-06-10T11:36:06;303.27;;;178.70;;
11955;SDS011;6038;52.276;10.530;2023-06-10T11:38:32;341.60;;;169.75;;
11955;SDS011;6038;52.276;10.530;2023-06-10T11:40:58;407.77;;;166.73;;
11955;SDS011;6038;52.276;10.530;2023-06-10T11:43:25;393.17;;;175.52;;
11955;SDS011;6038;52.276;10.530;2023-06-10T11:45:54;460.73;;;185.48;;
11955;SDS011;6038;52.276;10.530;2023-06-10T11:48:21;506.85;;;162.82;;
11955;SDS011;6038;52.276;10.530;2023-06-10T11:50:47;538.38;;;187.75;;
11955;SDS011;6038;52.276;10.530;2023-06-10T11:53:13;541.80;;;181.38;;
11955;SDS011;6038;52.276;10.530;2023-06-10T11:55:46;614.60;;;197.02;;
11955;SDS011;6038;52.276;10.530;2023-06-10T11:58:13;631.90;;;219.38;;
11955;SDS011;6038;52.276;10.530;2023-06-10T12:00:46;741.20;;;231.68;;
11955;SDS011;6038;52.276;10.530;2023-06-10T12:03:12;760.75;;;259.25;;
11955;SDS011;6038;52.276;10.530;2023-06-10T12:05:38;584.60;;;122.40;;
11955;SDS011;6038;52.276;10.530;2023-06-10T12:08:07;563.92;;;98.88;;
11955;SDS011;6038;52.276;10.530;2023-06-10T12:10:38;550.15;;;99.90;;
11955;SDS011;6038;52.276;10.530;2023-06-10T12:13:04;574.35;;;97.63;;
11955;SDS011;6038;52.276;10.530;2023-06-10T12:15:30;580.28;;;114.53;;
11955;SDS011;6038;52.276;10.530;2023-06-10T12:17:57;626.78;;;130.63;;
11955;SDS011;6038;52.276;10.530;2023-06-10T12:20:27;623.33;;;132.63;;
11955;SDS011;6038;52.276;10.530;2023-06-10T12:22:53;651.15;;;134.05;;
11955;SDS011;6038;52.276;10.530;2023-06-10T12:25:23;616.65;;;104.53;;
11955;SDS011;6038;52.276;10.530;2023-06-10T12:27:51;664.25;;;136.50;;
11955;SDS011;6038;52.276;10.530;2023-06-10T12:30:21;626.97;;;141.48;;
11955;SDS011;6038;52.276;10.530;2023-06-10T12:32:47;483.88;;;50.95;;
11955;SDS011;6038;52.276;10.530;2023-06-10T12:35:17;441.00;;;48.15;;
11955;SDS011;6038;52.276;10.530;2023-06-10T12:37:43;405.15;;;44.03;;
11955;SDS011;6038;52.276;10.530;2023-06-10T12:40:25;379.85;;;41.08;;
11955;SDS011;6038;52.276;10.530;2023-06-10T12:42:51;391.42;;;43.60;;
11955;SDS011;6038;52.276;10.530;2023-06-10T12:45:25;418.30;;;45.53;;
11955;SDS011;6038;52.276;10.530;2023-06-10T12:48:03;423.30;;;46.42;;
11955;SDS011;6038;52.276;10.530;2023-06-10T12:50:30;421.70;;;46.00;;
11955;SDS011;6038;52.276;10.530;2023-06-10T12:52:56;389.05;;;43.30;;
11955;SDS011;6038;52.276;10.530;2023-06-10T12:55:22;431.70;;;47.47;;
11955;SDS011;6038;52.276;10.530;2023-06-10T12:57:51;441.17;;;48.63;;
11955;SDS011;6038;52.276;10.530;2023-06-10T13:00:18;461.45;;;48.63;;
11955;SDS011;6038;52.276;10.530;2023-06-10T13:02:44;393.77;;;44.85;;
11955;SDS011;6038;52.276;10.530;2023-06-10T13:05:10;448.67;;;49.30;;
11955;SDS011;6038;52.276;10.530;2023-06-10T13:07:36;420.60;;;47.20;;
11955;SDS011;6038;52.276;10.530;2023-06-10T13:10:02;422.60;;;45.47;;
11955;SDS011;6038;52.276;10.530;2023-06-10T13:12:28;413.75;;;46.08;;
11955;SDS011;6038;52.276;10.530;2023-06-10T13:14:55;399.55;;;44.53;;
11955;SDS011;6038;52.276;10.530;2023-06-10T13:17:21;394.10;;;43.97;;
11955;SDS011;6038;52.276;10.530;2023-06-10T13:19:47;379.33;;;42.53;;
11955;SDS011;6038;52.276;10.530;2023-06-10T13:22:13;374.35;;;42.88;;
11955;SDS011;6038;52.276;10.530;2023-06-10T13:24:40;428.27;;;47.30;;
11955;SDS011;6038;52.276;10.530;2023-06-10T13:27:08;365.95;;;42.35;;
11955;SDS011;6038;52.276;10.530;2023-06-10T13:29:34;404.23;;;45.05;;
11955;SDS011;6038;52.276;10.530;2023-06-10T13:32:00;380.10;;;42.70;;
11955;SDS011;6038;52.276;10.530;2023-06-10T13:34:27;392.98;;;44.22;;
11955;SDS011;6038;52.276;10.530;2023-06-10T13:36:53;387.95;;;43.55;;
11955;SDS011;6038;52.276;10.530;2023-06-10T13:39:19;408.90;;;44.47;;
11955;SDS011;6038;52.276;10.530;2023-06-10T13:41:45;400.52;;;44.53;;
11955;SDS011;6038;52.276;10.530;2023-06-10T13:44:11;390.10;;;44.45;;
11955;SDS011;6038;52.276;10.530;2023-06-10T13:46:37;381.65;;;42.47;;
11955;SDS011;6038;52.276;10.530;2023-06-10T13:49:03;381.35;;;42.25;;
11955;SDS011;6038;52.276;10.530;2023-06-10T13:51:29;395.08;;;42.67;;
11955;SDS011;6038;52.276;10.530;2023-06-10T13:53:55;363.15;;;40.83;;
11955;SDS011;6038;52.276;10.530;2023-06-10T13:56:21;375.17;;;41.78;;
11955;SDS011;6038;52.276;10.530;2023-06-10T13:58:48;350.83;;;39.63;;
11955;SDS011;6038;52.276;10.530;2023-06-10T14:01:14;388.80;;;42.75;;
11955;SDS011;6038;52.276;10.530;2023-06-10T14:03:40;347.80;;;39.67;;
11955;SDS011;6038;52.276;10.530;2023-06-10T14:06:06;353.30;;;40.50;;
11955;SDS011;6038;52.276;10.530;2023-06-10T14:08:32;334.63;;;37.85;;
11955;SDS011;6038;52.276;10.530;2023-06-10T14:10:58;341.30;;;39.47;;
11955;SDS011;6038;52.276;10.530;2023-06-10T14:13:24;375.58;;;42.30;;
11955;SDS011;6038;52.276;10.530;2023-06-10T14:15:50;378.20;;;41.90;;
11955;SDS011;6038;52.276;10.530;2023-06-10T14:18:16;323.38;;;38.25;;
11955;SDS011;6038;52.276;10.530;2023-06-10T14:20:42;329.67;;;38.03;;
11955;SDS011;6038;52.276;10.530;2023-06-10T14:23:08;357.73;;;39.72;;
11955;SDS011;6038;52.276;10.530;2023-06-10T14:25:34;342.55;;;38.40;;
11955;SDS011;6038;52.276;10.530;2023-06-10T14:28:00;337.50;;;38.72;;
11955;SDS011;6038;52.276;10.530;2023-06-10T14:30:26;350.58;;;39.33;;
11955;SDS011;6038;52.276;10.530;2023-06-10T14:32:52;360.88;;;40.88;;
11955;SDS011;6038;52.276;10.530;2023-06-10T14:35:18;342.75;;;39.70;;
11955;SDS011;6038;52.276;10.530;2023-06-10T14:37:45;358.60;;;40.67;;
11955;SDS011;6038;52.276;10.530;2023-06-10T14:40:11;378.58;;;42.05;;
11955;SDS011;6038;52.276;10.530;2023-06-10T14:42:37;333.73;;;39.53;;
11955;SDS011;6038;52.276;10.530;2023-06-10T14:45:04;376.35;;;42.40;;
11955;SDS011;6038;52.276;10.530;2023-06-10T14:47:30;366.77;;;41.28;;
11955;SDS011;6038;52.276;10.530;2023-06-10T14:49:56;330.23;;;38.58;;
11955;SDS011;6038;52.276;10.530;2023-06-10T14:52:22;329.50;;;37.50;;